createdAt,value
2023-04-20T00:00:52.053Z,101522.06
2023-04-20T00:03:22.140Z,101517.47
2023-04-20T00:05:50.529Z,101521.88
2023-04-20T00:08:18.821Z,101519.97
2023-04-20T00:10:46.852Z,101511.00
2023-04-20T00:13:14.785Z,101511.81
2023-04-20T00:15:42.759Z,101514.75
2023-04-20T00:18:11.095Z,101501.84
2023-04-20T00:20:40.433Z,101494.72
2023-04-20T00:23:08.323Z,101491.16
2023-04-20T00:25:36.437Z,101483.19
2023-04-20T00:28:05.130Z,101485.72
2023-04-20T00:30:33.020Z,101474.03
2023-04-20T00:33:01.538Z,101469.44
2023-04-20T00:35:29.675Z,101464.00
2023-04-20T00:37:59.302Z,101456.88
2023-04-20T00:40:27.197Z,101458.56
2023-04-20T00:42:55.067Z,101457.72
2023-04-20T00:45:23.181Z,101448.75
2023-04-20T00:47:51.789Z,101454.16
2023-04-20T00:50:20.163Z,101448.56
2023-04-20T00:52:48.085Z,101445.84
2023-04-20T00:55:17.367Z,101438.50
2023-04-20T00:57:45.332Z,101428.69
2023-04-20T01:00:14.446Z,101433.28
2023-04-20T01:02:42.473Z,101431.59
2023-04-20T01:05:10.728Z,101427.84
2023-04-20T01:07:38.658Z,101423.28
2023-04-20T01:10:08.368Z,101418.88
2023-04-20T01:12:37.702Z,101419.72
2023-04-20T01:15:07.814Z,101410.91
2023-04-20T01:20:30.493Z,101417.00
2023-04-20T01:22:59.723Z,101409.03
2023-04-20T01:25:33.864Z,101411.56
2023-04-20T01:28:02.154Z,101382.25
2023-04-20T01:30:30.256Z,101399.22
2023-04-20T01:32:58.172Z,101397.34
2023-04-20T01:35:26.160Z,101373.69
2023-04-20T01:37:54.011Z,101394.81
2023-04-20T01:40:23.340Z,101379.34
2023-04-20T01:42:51.243Z,101391.28
2023-04-20T01:45:19.097Z,101348.91
2023-04-20T01:47:47.053Z,101393.16
2023-04-20T01:50:14.947Z,101362.06
2023-04-20T01:52:42.886Z,101391.28
2023-04-20T01:55:11.751Z,101392.09
2023-04-20T01:57:40.976Z,101371.19
2023-04-20T02:00:12.367Z,101375.00
2023-04-20T02:02:40.356Z,101375.81
2023-04-20T02:05:09.486Z,101366.19
2023-04-20T02:07:37.570Z,101367.03
2023-04-20T02:10:06.395Z,101367.03
2023-04-20T02:12:34.381Z,101362.44
2023-04-20T02:15:05.374Z,101345.31
2023-04-20T02:17:33.384Z,101350.56
2023-04-20T02:20:01.298Z,101353.47
2023-04-20T02:22:29.188Z,101348.03
2023-04-20T02:24:57.717Z,101350.75
2023-04-20T02:27:25.635Z,101339.88
2023-04-20T02:29:53.611Z,101334.47
2023-04-20T02:32:22.986Z,101331.75
2023-04-20T02:34:51.246Z,101265.97
2023-04-20T02:37:19.177Z,101328.19
2023-04-20T02:39:47.229Z,101321.72
2023-04-20T02:42:15.132Z,101306.63
2023-04-20T02:44:43.393Z,101330.06
2023-04-20T02:47:11.254Z,101319.19
2023-04-20T02:49:40.967Z,101306.47
2023-04-20T02:52:09.164Z,101303.56
2023-04-20T02:54:37.394Z,101307.31
2023-04-20T02:57:05.361Z,101309.19
2023-04-20T02:59:33.338Z,101305.63
2023-04-20T03:02:01.394Z,101305.63
2023-04-20T03:04:30.956Z,101305.63
2023-04-20T03:07:00.552Z,101301.03
2023-04-20T03:09:28.439Z,101293.91
2023-04-20T03:11:56.319Z,101246.19
2023-04-20T03:14:24.570Z,101294.75
2023-04-20T03:16:52.818Z,101296.63
2023-04-20T03:19:20.802Z,101295.59
2023-04-20T03:21:48.731Z,101294.75
2023-04-20T03:24:19.152Z,101291.00
2023-04-20T03:26:47.057Z,101168.69
2023-04-20T03:29:15.061Z,101288.09
2023-04-20T03:31:43.144Z,101278.28
2023-04-20T03:34:11.328Z,101286.19
2023-04-20T03:36:39.346Z,101286.19
2023-04-20T03:39:07.345Z,101283.47
2023-04-20T03:41:36.650Z,101284.97
2023-04-20T03:44:05.089Z,101278.69
2023-04-20T03:46:33.708Z,101274.31
2023-04-20T03:49:01.625Z,101273.28
2023-04-20T03:51:29.547Z,101268.69
2023-04-20T03:53:57.705Z,101267.84
2023-04-20T03:56:26.881Z,101255.28
2023-04-20T03:58:56.220Z,101246.94
2023-04-20T04:01:24.170Z,101247.38
2023-04-20T04:03:52.557Z,101252.38
2023-04-20T04:06:20.714Z,101250.50
2023-04-20T04:08:48.581Z,101255.94
2023-04-20T04:11:16.645Z,101257.81
2023-04-20T04:13:44.993Z,101250.50
2023-04-20T04:16:14.270Z,101259.50
2023-04-20T04:18:45.164Z,101241.72
2023-04-20T04:21:13.057Z,101244.84
2023-04-20T04:23:42.349Z,101237.75
2023-04-20T04:26:10.267Z,101248.63
2023-04-20T04:28:38.302Z,101245.91
2023-04-20T04:31:07.059Z,101245.91
2023-04-20T04:33:36.681Z,101236.06
2023-04-20T04:36:05.472Z,101249.47
2023-04-20T04:38:33.969Z,101248.63
2023-04-20T04:41:01.908Z,101232.97
2023-04-20T04:43:30.688Z,101244.03
2023-04-20T04:45:59.506Z,101210.56
2023-04-20T04:48:27.914Z,101245.91
2023-04-20T04:50:57.263Z,101248.63
2023-04-20T04:53:25.422Z,101238.63
2023-04-20T04:55:53.323Z,101238.81
2023-04-20T04:58:21.273Z,101164.94
2023-04-20T05:00:49.305Z,101231.31
2023-04-20T05:03:17.669Z,101232.34
2023-04-20T05:05:45.735Z,101236.75
2023-04-20T05:08:14.994Z,101239.25
2023-04-20T05:10:42.952Z,101243.84
2023-04-20T05:13:11.181Z,101185.03
2023-04-20T05:15:39.108Z,101129.41
2023-04-20T05:18:07.373Z,101208.47
2023-04-20T05:20:35.318Z,101216.63
2023-04-20T05:23:03.991Z,101241.34
2023-04-20T05:25:33.784Z,101233.19
2023-04-20T05:28:01.722Z,101243.22
2023-04-20T05:30:29.704Z,101245.09
2023-04-20T05:32:58.021Z,101241.34
2023-04-20T05:35:26.046Z,101225.63
2023-04-20T05:37:53.963Z,101242.97
2023-04-20T05:40:21.892Z,101234.22
2023-04-20T05:42:51.729Z,101187.09
2023-04-20T05:45:20.045Z,101235.06
2023-04-20T05:47:54.094Z,101240.50
2023-04-20T05:50:22.834Z,101237.56
2023-04-20T05:52:51.067Z,101236.75
2023-04-20T05:55:22.073Z,101238.63
2023-04-20T05:57:52.434Z,101222.72
2023-04-20T06:00:22.086Z,101236.75
2023-04-20T06:02:51.862Z,101241.34
2023-04-20T06:05:21.017Z,101226.03
2023-04-20T06:07:48.944Z,101222.72
2023-04-20T06:10:16.866Z,101228.38
2023-04-20T06:12:44.795Z,101234.03
2023-04-20T06:15:14.593Z,101187.78
2023-04-20T06:17:42.554Z,101225.44
2023-04-20T06:20:11.686Z,101230.47
2023-04-20T06:22:43.378Z,101208.31
2023-04-20T06:25:11.754Z,101217.50
2023-04-20T06:27:39.729Z,101233.84
2023-04-20T06:30:10.743Z,101215.81
2023-04-20T06:32:40.128Z,101221.47
2023-04-20T06:35:09.155Z,101218.53
2023-04-20T06:37:37.285Z,101216.91
2023-04-20T06:40:08.067Z,101168.78
2023-04-20T06:42:36.221Z,101217.72
2023-04-20T06:45:04.765Z,101193.66
2023-04-20T06:47:33.752Z,101220.44
2023-04-20T06:50:04.135Z,101216.91
2023-04-20T06:52:32.161Z,101215.81
2023-04-20T06:55:01.618Z,101224.84
2023-04-20T06:57:29.505Z,101190.09
2023-04-20T06:59:58.920Z,101208.53
2023-04-20T07:02:27.321Z,101219.41
2023-04-20T07:05:02.947Z,101218.38
2023-04-20T07:07:30.848Z,101219.41
2023-04-20T07:09:58.801Z,101213.97
2023-04-20T07:12:26.699Z,101191.97
2023-04-20T07:14:55.683Z,101206.00
2023-04-20T07:17:23.597Z,101212.13
2023-04-20T07:19:52.551Z,101220.25
2023-04-20T07:22:22.164Z,101187.38
2023-04-20T07:24:50.047Z,101219.41
2023-04-20T07:27:18.007Z,101217.34
2023-04-20T07:29:46.299Z,101213.78
2023-04-20T07:32:14.564Z,101212.94
2023-04-20T07:34:42.869Z,101221.09
2023-04-20T07:37:10.825Z,101214.81
2023-04-20T07:39:40.099Z,101208.56
2023-04-20T07:42:08.037Z,101213.78
2023-04-20T07:44:36.754Z,101208.56
2023-04-20T07:47:04.987Z,101208.28
2023-04-20T07:49:32.926Z,101219.22
2023-04-20T07:52:15.038Z,101208.53
2023-04-20T07:54:46.074Z,101216.69
2023-04-20T07:57:14.000Z,101218.53
2023-04-20T07:59:41.889Z,101224.84
2023-04-20T08:02:09.921Z,101221.25
2023-04-20T08:04:38.879Z,101213.13
2023-04-20T08:07:07.062Z,101169.41
2023-04-20T08:09:34.963Z,101206.69
2023-04-20T08:12:04.458Z,101206.88
2023-04-20T08:14:33.652Z,101211.28
2023-04-20T08:17:01.662Z,101210.41
2023-04-20T08:19:31.587Z,101202.47
2023-04-20T08:22:00.714Z,101203.97
2023-04-20T08:24:30.422Z,101198.34
2023-04-20T08:26:59.605Z,101200.00
2023-04-20T08:29:28.986Z,101197.09
2023-04-20T08:31:57.014Z,101190.38
2023-04-20T08:34:25.438Z,101188.97
2023-04-20T08:36:53.368Z,101143.72
2023-04-20T08:39:22.339Z,101192.94
2023-04-20T08:41:53.940Z,101195.41
2023-04-20T08:44:22.195Z,101193.78
2023-04-20T08:46:51.686Z,101192.69
2023-04-20T08:49:20.489Z,101196.69
2023-04-20T08:51:49.005Z,101201.06
2023-04-20T08:54:17.514Z,101196.47
2023-04-20T08:56:46.283Z,101193.78
2023-04-20T08:59:14.368Z,101175.09
2023-04-20T09:01:42.617Z,101189.38
2023-04-20T09:04:22.651Z,101187.50
2023-04-20T09:06:52.392Z,101181.22
2023-04-20T09:09:20.506Z,101189.38
2023-04-20T09:11:50.193Z,101182.06
2023-04-20T09:14:18.891Z,101180.19
2023-04-20T09:16:50.595Z,101182.91
2023-04-20T09:19:24.794Z,101176.63
2023-04-20T09:21:53.809Z,101178.50
2023-04-20T09:24:22.291Z,101173.28
2023-04-20T09:26:50.240Z,101174.97
2023-04-20T09:29:18.318Z,101171.41
2023-04-20T09:31:46.321Z,101173.09
2023-04-20T09:34:14.561Z,101148.81
2023-04-20T09:36:44.888Z,101160.53
2023-04-20T09:39:13.398Z,101123.69
2023-04-20T09:41:42.010Z,101156.97
2023-04-20T09:44:11.040Z,101156.97
2023-04-20T09:46:39.769Z,101155.31
2023-04-20T09:49:08.524Z,101161.56
2023-04-20T09:51:37.487Z,101149.88
2023-04-20T09:54:07.496Z,101159.69
2023-04-20T09:56:35.915Z,101153.66
2023-04-20T09:59:04.142Z,101144.44
2023-04-20T10:01:33.666Z,101144.44
2023-04-20T10:04:02.777Z,101132.75
2023-04-20T10:06:31.895Z,101137.38
2023-04-20T10:09:01.622Z,101133.56
2023-04-20T10:11:41.132Z,101108.91
2023-04-20T10:14:18.107Z,101131.94
2023-04-20T10:16:46.782Z,101134.41
2023-04-20T10:19:14.746Z,101133.56
2023-04-20T10:21:49.321Z,101125.41
2023-04-20T10:24:19.683Z,101130.88
2023-04-20T10:26:49.739Z,101136.28
2023-04-20T10:29:24.704Z,101135.25
2023-04-20T10:31:53.384Z,101135.06
2023-04-20T10:34:31.073Z,101135.06
2023-04-20T10:37:08.522Z,101131.50
2023-04-20T10:39:37.798Z,101128.16
2023-04-20T10:42:07.153Z,101119.16
2023-04-20T10:44:35.529Z,101103.25
2023-04-20T10:47:03.460Z,101117.91
2023-04-20T10:49:32.324Z,101121.88
2023-04-20T10:52:00.326Z,101113.72
2023-04-20T10:54:28.974Z,101117.28
2023-04-20T10:56:57.115Z,101091.13
2023-04-20T10:59:26.454Z,101119.16
2023-04-20T11:01:55.555Z,101106.44
2023-04-20T11:04:31.035Z,101109.97
2023-04-20T11:07:05.687Z,101105.38
2023-04-20T11:09:35.203Z,101094.72
2023-04-20T11:12:05.212Z,101091.34
2023-04-20T11:14:35.531Z,101102.66
2023-04-20T11:17:03.626Z,101089.66
2023-04-20T11:19:33.066Z,101095.94
2023-04-20T11:22:02.967Z,101092.00
2023-04-20T11:24:31.843Z,101103.09
2023-04-20T11:27:00.159Z,101108.28
2023-04-20T11:29:29.824Z,101109.13
2023-04-20T11:31:59.315Z,101100.16
2023-04-20T11:34:27.584Z,101101.22
2023-04-20T11:36:56.744Z,101099.34
2023-04-20T11:39:25.390Z,101098.69
2023-04-20T11:41:53.415Z,101093.28
2023-04-20T11:44:21.994Z,101094.94
2023-04-20T11:46:50.364Z,101102.06
2023-04-20T11:49:19.857Z,101102.88
2023-04-20T11:51:47.804Z,101101.00
2023-04-20T11:54:15.774Z,101102.88
2023-04-20T11:56:44.919Z,101101.00
2023-04-20T11:59:14.076Z,101096.41
2023-04-20T12:01:42.149Z,101095.56
2023-04-20T12:04:11.598Z,101099.13
2023-04-20T12:06:41.470Z,101100.16
2023-04-20T12:09:13.557Z,101084.25
2023-04-20T12:11:41.554Z,101109.97
2023-04-20T12:14:09.740Z,101110.81
2023-04-20T12:16:37.988Z,101105.38
2023-04-20T12:19:05.928Z,101110.81
2023-04-20T12:21:33.875Z,101099.94
2023-04-20T12:24:04.018Z,101049.13
2023-04-20T12:26:38.402Z,101104.53
2023-04-20T12:29:07.208Z,101106.22
2023-04-20T12:31:36.461Z,101103.72
2023-04-20T12:34:04.462Z,101103.72
2023-04-20T12:36:34.988Z,101087.78
2023-04-20T12:39:04.606Z,101103.31
2023-04-20T12:41:33.252Z,101106.88
2023-04-20T12:44:04.392Z,101095.38
2023-04-20T12:46:34.087Z,101045.59
2023-04-20T12:49:02.176Z,101095.78
2023-04-20T12:51:30.084Z,101083.84
2023-04-20T12:53:58.329Z,101090.34
2023-04-20T12:56:28.661Z,101092.22
2023-04-20T12:58:56.589Z,101088.69
2023-04-20T13:01:24.517Z,101043.94
2023-04-20T13:03:52.981Z,101088.47
2023-04-20T13:06:21.111Z,101079.91
2023-04-20T13:08:50.456Z,101077.84
2023-04-20T13:11:18.358Z,101084.06
2023-04-20T13:13:47.982Z,101074.91
2023-04-20T13:16:16.548Z,101075.13
2023-04-20T13:18:44.534Z,101073.22
2023-04-20T13:21:12.462Z,101081.34
2023-04-20T13:23:40.911Z,101078.63
2023-04-20T13:26:08.884Z,101078.63
2023-04-20T13:28:37.721Z,101019.72
2023-04-20T13:31:07.142Z,101066.97
2023-04-20T13:33:35.898Z,101046.28
2023-04-20T13:36:03.822Z,101052.31
2023-04-20T13:38:31.789Z,101008.63
2023-04-20T13:40:59.765Z,101042.28
2023-04-20T13:43:28.010Z,101045.66
2023-04-20T13:45:55.933Z,100982.94
2023-04-20T13:48:25.274Z,101040.22
2023-04-20T13:50:54.072Z,101045.44
2023-04-20T13:53:22.587Z,101042.72
2023-04-20T13:55:50.926Z,101040.03
2023-04-20T13:58:18.852Z,101038.34
2023-04-20T14:00:46.868Z,101037.31
2023-04-20T14:03:15.728Z,101029.16
2023-04-20T14:05:46.088Z,101029.34
2023-04-20T14:08:14.759Z,101028.72
2023-04-20T14:10:42.672Z,101025.16
2023-04-20T14:13:10.836Z,101016.81
2023-04-20T14:15:38.919Z,101006.59
2023-04-20T14:18:07.065Z,101012.66
2023-04-20T14:20:36.128Z,101011.81
2023-04-20T14:23:07.348Z,101019.72
2023-04-20T14:25:36.794Z,101015.38
2023-04-20T14:28:04.878Z,101018.91
2023-04-20T14:30:32.889Z,101018.09
2023-04-20T14:33:01.521Z,101010.53
2023-04-20T14:35:29.446Z,101009.31
2023-04-20T14:37:57.449Z,101022.88
2023-04-20T14:40:26.793Z,101003.22
2023-04-20T14:42:54.781Z,101020.38
2023-04-20T14:45:22.723Z,101014.09
2023-04-20T14:47:54.158Z,101023.94
2023-04-20T14:50:23.274Z,101016.81
2023-04-20T14:52:51.351Z,101038.53
2023-04-20T14:55:23.483Z,101000.31
2023-04-20T14:57:55.356Z,101024.75
2023-04-20T15:00:24.617Z,101037.31
2023-04-20T15:02:52.966Z,101029.75
2023-04-20T15:05:21.286Z,101035.19
2023-04-20T15:07:50.853Z,101016.63
2023-04-20T15:10:19.057Z,101014.75
2023-04-20T15:12:47.936Z,101009.50
2023-04-20T15:15:18.067Z,100997.81
2023-04-20T15:17:46.316Z,100993.22
2023-04-20T15:20:15.092Z,100996.97
2023-04-20T15:22:43.003Z,100996.97
2023-04-20T15:25:11.493Z,100995.28
2023-04-20T15:27:39.420Z,100991.53
2023-04-20T15:30:10.967Z,100990.50
2023-04-20T15:32:41.517Z,100981.50
2023-04-20T15:35:10.078Z,100988.81
2023-04-20T15:37:38.099Z,100985.28
2023-04-20T15:40:07.690Z,100987.16
2023-04-20T15:42:35.738Z,100972.53
2023-04-20T15:45:04.342Z,100962.09
2023-04-20T15:47:32.296Z,100979.00
2023-04-20T15:50:03.379Z,100982.34
2023-04-20T15:52:31.810Z,100968.97
2023-04-20T15:55:00.036Z,100987.78
2023-04-20T15:57:28.490Z,100972.72
2023-04-20T15:59:56.444Z,100969.81
2023-04-20T16:02:24.578Z,100972.31
2023-04-20T16:04:53.056Z,100976.09
2023-04-20T16:07:22.453Z,100975.25
2023-04-20T16:09:50.699Z,100980.28
2023-04-20T16:12:18.695Z,100974.41
2023-04-20T16:14:46.994Z,100976.28
2023-04-20T16:17:15.545Z,100986.94
2023-04-20T16:19:43.523Z,100969.22
2023-04-20T16:22:12.317Z,100976.91
2023-04-20T16:24:41.916Z,100969.59
2023-04-20T16:27:09.856Z,100976.91
2023-04-20T16:29:37.938Z,100977.97
2023-04-20T16:32:06.334Z,100975.44
2023-04-20T16:34:34.273Z,100929.28
2023-04-20T16:37:02.236Z,100738.78
2023-04-20T16:39:30.256Z,100982.75
2023-04-20T16:41:59.577Z,100987.16
2023-04-20T16:44:28.019Z,100984.44
2023-04-20T16:46:56.098Z,100990.69
2023-04-20T16:49:24.118Z,100988.38
2023-04-20T16:51:52.107Z,100919.28
2023-04-20T16:54:20.671Z,100978.16
2023-04-20T16:56:48.803Z,100991.75
2023-04-20T16:59:18.103Z,100975.03
2023-04-20T17:01:46.137Z,100988.19
2023-04-20T17:04:14.602Z,100999.03
2023-04-20T17:06:42.788Z,100996.53
2023-04-20T17:09:11.378Z,100990.25
2023-04-20T17:11:39.835Z,100978.38
2023-04-20T17:14:08.097Z,100988.63
2023-04-20T17:16:37.443Z,100974.84
2023-04-20T17:19:05.540Z,100999.47
2023-04-20T17:21:33.608Z,100992.38
2023-04-20T17:24:01.811Z,100993.41
2023-04-20T17:26:29.761Z,100989.84
2023-04-20T17:28:57.847Z,101000.72
2023-04-20T17:31:25.806Z,100998.00
2023-04-20T17:33:55.757Z,100968.34
2023-04-20T17:36:23.778Z,101007.84
2023-04-20T17:38:51.750Z,101025.38
2023-04-20T17:41:19.925Z,101041.25
2023-04-20T17:43:48.660Z,101042.72
2023-04-20T17:46:16.608Z,101047.72
2023-04-20T17:48:44.646Z,101049.41
2023-04-20T17:51:15.501Z,101057.56
2023-04-20T17:53:43.864Z,101063.84
2023-04-20T17:56:11.899Z,101061.50
2023-04-20T17:58:39.898Z,101071.97
2023-04-20T18:01:07.852Z,101067.78
2023-04-20T18:03:36.324Z,101065.69
2023-04-20T18:06:04.460Z,101082.41
2023-04-20T18:08:34.552Z,101081.78
2023-04-20T18:11:03.424Z,101085.34
2023-04-20T18:13:31.720Z,101075.31
2023-04-20T18:16:01.726Z,101035.59
2023-04-20T18:18:29.672Z,101071.53
2023-04-20T18:20:57.613Z,101070.94
2023-04-20T18:23:26.007Z,101073.66
2023-04-20T18:25:55.307Z,101081.78
2023-04-20T18:28:23.621Z,101077.19
2023-04-20T18:30:51.566Z,100941.81
2023-04-20T18:33:19.846Z,101078.25
2023-04-20T18:35:47.770Z,101057.94
2023-04-20T18:38:15.682Z,101093.28
2023-04-20T18:40:43.606Z,101090.34
2023-04-20T18:43:14.628Z,101044.78
2023-04-20T18:45:42.549Z,101088.25
2023-04-20T18:48:10.467Z,101089.31
2023-04-20T18:50:38.507Z,101090.75
2023-04-20T18:53:06.521Z,101086.41
2023-04-20T18:55:34.631Z,101086.41
2023-04-20T18:58:02.559Z,101083.88
2023-04-20T19:00:31.927Z,101082.22
2023-04-20T19:02:59.997Z,101005.28
2023-04-20T19:05:28.360Z,101069.88
2023-04-20T19:07:56.276Z,101089.50
2023-04-20T19:10:25.666Z,101087.84
2023-04-20T19:12:53.670Z,101083.25
2023-04-20T19:15:25.468Z,101083.47
2023-04-20T19:17:56.135Z,101055.00
2023-04-20T19:20:24.278Z,101083.47
2023-04-20T19:22:52.238Z,101076.13
2023-04-20T19:25:20.864Z,101079.69
2023-04-20T19:27:48.797Z,101066.09
2023-04-20T19:30:16.778Z,101074.25
2023-04-20T19:32:44.868Z,101054.44
2023-04-20T19:35:14.484Z,101059.22
2023-04-20T19:37:42.418Z,101036.22
2023-04-20T19:40:10.649Z,101057.34
2023-04-20T19:42:40.533Z,101061.09
2023-04-20T19:45:12.329Z,101050.25
2023-04-20T19:47:40.245Z,101039.19
2023-04-20T19:50:08.883Z,101051.09
2023-04-20T19:52:38.294Z,101039.38
2023-04-20T19:55:07.659Z,101034.78
2023-04-20T19:57:35.628Z,101028.50
2023-04-20T20:00:04.458Z,101037.50
2023-04-20T20:02:32.442Z,101026.84
2023-04-20T20:05:00.724Z,101026.84
2023-04-20T20:07:28.654Z,101024.97
2023-04-20T20:09:57.925Z,101006.78
2023-04-20T20:12:25.794Z,101019.34
2023-04-20T20:14:53.998Z,101012.63
2023-04-20T20:17:21.897Z,101008.88
2023-04-20T20:19:49.931Z,101019.34
2023-04-20T20:22:17.937Z,101031.22
2023-04-20T20:24:47.893Z,101028.50
2023-04-20T20:27:17.181Z,101024.97
2023-04-20T20:29:45.108Z,101019.53
2023-04-20T20:32:13.067Z,101004.91
2023-04-20T20:34:41.378Z,101002.38
2023-04-20T20:37:10.601Z,101043.97
2023-04-20T20:39:38.567Z,101040.41
2023-04-20T20:42:08.992Z,101043.13
2023-04-20T20:44:39.765Z,101053.16
2023-04-20T20:47:07.703Z,101067.56
2023-04-20T20:49:35.674Z,101008.63
2023-04-20T20:52:03.591Z,101042.72
2023-04-20T20:54:32.860Z,101065.69
2023-04-20T20:57:01.723Z,101042.53
2023-04-20T20:59:29.660Z,101061.09
2023-04-20T21:01:59.117Z,101079.09
2023-04-20T21:04:27.260Z,101074.03
2023-04-20T21:06:55.283Z,101070.09
2023-04-20T21:09:23.172Z,101062.34
2023-04-20T21:11:51.864Z,101063.81
2023-04-20T21:14:20.322Z,101058.41
2023-04-20T21:16:48.259Z,101064.47
2023-04-20T21:19:17.746Z,101061.75
2023-04-20T21:21:45.887Z,101025.53
2023-04-20T21:24:14.038Z,101051.47
2023-04-20T21:26:42.134Z,101057.56
2023-04-20T21:29:10.213Z,101060.28
2023-04-20T21:31:38.264Z,101059.22
2023-04-20T21:34:06.539Z,101060.06
2023-04-20T21:36:36.046Z,101051.09
2023-04-20T21:39:04.242Z,101060.06
2023-04-20T21:41:32.354Z,101054.63
2023-04-20T21:44:01.271Z,101047.53
2023-04-20T21:46:29.325Z,101046.50
2023-04-20T21:48:57.391Z,101042.94
2023-04-20T21:51:25.298Z,101042.94
2023-04-20T21:53:54.895Z,101032.06
2023-04-20T21:56:22.814Z,101036.47
2023-04-20T21:58:50.753Z,101038.13
2023-04-20T22:01:18.700Z,101030.81
2023-04-20T22:03:47.712Z,101014.72
2023-04-20T22:06:15.781Z,101022.03
2023-04-20T22:08:43.741Z,101019.34
2023-04-20T22:11:13.078Z,101010.34
2023-04-20T22:13:41.272Z,101010.34
2023-04-20T22:16:09.264Z,100995.53
2023-04-20T22:18:37.170Z,101004.91
2023-04-20T22:21:05.203Z,100959.16
2023-04-20T22:23:33.375Z,100995.94
2023-04-20T22:26:01.255Z,100990.28
2023-04-20T22:28:30.608Z,100988.63
2023-04-20T22:30:58.560Z,100982.97
2023-04-20T22:33:26.757Z,100971.28
2023-04-20T22:35:54.687Z,100974.19
2023-04-20T22:38:22.678Z,100974.84
2023-04-20T22:40:50.649Z,100979.44
2023-04-20T22:43:20.161Z,100970.44
2023-04-20T22:45:49.429Z,100950.38
2023-04-20T22:48:17.591Z,100982.34
2023-04-20T22:50:45.568Z,100978.59
2023-04-20T22:53:14.432Z,100974.19
2023-04-20T22:55:42.379Z,100978.59
2023-04-20T22:58:10.433Z,100972.53
2023-04-20T23:00:38.382Z,100973.16
2023-04-20T23:03:08.143Z,100968.78
2023-04-20T23:05:36.249Z,100964.19
2023-04-20T23:08:04.166Z,100959.59
2023-04-20T23:10:32.391Z,100958.75
2023-04-20T23:13:00.629Z,100945.16
2023-04-20T23:15:28.639Z,100940.78
2023-04-20T23:17:57.225Z,100934.50
2023-04-20T23:20:27.000Z,100934.50
2023-04-20T23:22:54.958Z,100928.22
2023-04-20T23:25:22.869Z,100919.03
2023-04-20T23:27:50.823Z,100919.03
2023-04-20T23:30:18.702Z,100921.75
2023-04-20T23:32:46.604Z,100921.75
2023-04-20T23:35:14.982Z,100909.66
2023-04-20T23:37:44.286Z,100923.66
2023-04-20T23:40:12.920Z,100920.94
2023-04-20T23:42:40.836Z,100891.72
2023-04-20T23:45:12.956Z,100922.19
2023-04-20T23:47:41.189Z,100924.91
2023-04-20T23:50:10.239Z,100925.97
2023-04-20T23:52:38.497Z,100937.66
2023-04-20T23:55:09.038Z,100915.50
2023-04-20T23:57:36.920Z,100931.38
